Stations météo

réclame
Mon MeteoGroup
Leuchtturm Alte Weser, Allemagne (10124): Température de l'air & dewpoint: 26.06.2020 10:00:00 - 02.07.2020 10:00:00 (CEST)Leuchtturm Alte Weser, Allemagne (10124): Vitesse du vent & gusts: 26.06.2020 10:00:00 - 02.07.2020 10:00:00 (CEST)Leuchtturm Alte Weser, Allemagne (10124): Direction du vent: 26.06.2020 10:00:00 - 02.07.2020 10:00:00 (CEST)Leuchtturm Alte Weser, Allemagne (10124): reduced air pressure: 26.06.2020 10:00:00 - 02.07.2020 10:00:00 (CEST)Leuchtturm Alte Weser, Allemagne (10124): Ensoleillement: 26.06.2020 10:00:00 - 02.07.2020 10:00:00 (CEST)
Date & Time tt [°C] td [°C] ff [km/h] ff [knt] fx [km/h] fx [knt] dd ppp [hPa] sd [min]
02.07.2020 10:00:00 15,5 12,7 11 6 - - WNW 1008,1 6
02.07.2020 09:00:00 15,3 13,0 14 8 - - WNW 1007,6 42
02.07.2020 08:00:00 15,4 12,8 14 8 - - WNW 1007,3 12
02.07.2020 07:00:00 15,6 13,4 14 8 - - WNW 1006,9 6
02.07.2020 06:00:00 15,4 13,3 14 8 - - WNW 1006,6 0
02.07.2020 05:00:00 15,3 13,2 18 10 - - WNW 1006,4 0
02.07.2020 04:00:00 15,2 14,0 22 12 - - WNW 1006,1 0
02.07.2020 03:00:00 15,8 14,1 25 14 - - W 1006,0 0
02.07.2020 02:00:00 16,3 13,8 36 19 - - W 1005,6 0
02.07.2020 01:00:00 16,2 14,5 40 21 54 29 W 1005,4 0
02.07.2020 00:00:00 16,8 13,9 47 25 58 31 W 1004,9 0
01.07.2020 23:00:00 16,8 14,2 40 21 - - W 1004,8 0
01.07.2020 22:00:00 16,2 14,5 32 18 50 27 W 1004,6 0
01.07.2020 21:00:00 15,6 14,5 43 23 50 27 W 1004,2 0
01.07.2020 20:00:00 16,6 14,8 36 19 - - W 1003,9 0
01.07.2020 19:00:00 16,9 15,3 36 19 - - W 1003,5 6
01.07.2020 18:00:00 - - - - - - - - -
01.07.2020 17:00:00 17,2 15,7 32 18 - - W 1003,1 54
01.07.2020 16:00:00 17,9 15,1 36 19 47 25 WNW 1002,8 24
01.07.2020 15:00:00 19,8 15,2 25 14 - - SSW 1002,8 36
01.07.2020 14:00:00 18,4 15,8 29 16 - - SSE 1003,4 36
01.07.2020 13:00:00 17,7 14,9 22 12 - - S 1003,7 42
01.07.2020 12:00:00 16,9 14,3 32 18 - - S 1004,1 48
01.07.2020 11:00:00 16,2 14,0 18 10 - - S 1004,1 60
01.07.2020 10:00:00 15,3 13,9 18 10 - - SSW 1004,5 48
01.07.2020 09:00:00 14,7 13,8 22 12 - - SSW 1004,5 54
01.07.2020 08:00:00 14,5 13,8 22 12 - - SW 1004,2 6
01.07.2020 07:00:00 14,3 13,6 25 14 - - SW 1004,3 24
01.07.2020 06:00:00 14,3 13,5 22 12 - - WSW 1004,1 0
01.07.2020 05:00:00 14,2 13,3 29 16 - - WSW 1004,4 0
01.07.2020 04:00:00 14,2 13,5 32 18 - - SW 1004,2 0
01.07.2020 03:00:00 14,0 12,8 32 18 - - SW 1004,3 0
01.07.2020 02:00:00 14,3 12,4 32 18 - - SW 1004,3 0
01.07.2020 01:00:00 14,3 12,8 32 18 - - SW 1004,6 0
01.07.2020 00:00:00 13,6 13,6 32 18 - - SW 1004,8 0
30.06.2020 23:00:00 13,2 12,5 32 18 - - SSW 1005,0 0
30.06.2020 22:00:00 13,4 11,9 40 21 54 29 SSW 1004,7 0
30.06.2020 21:00:00 15,3 11,5 50 27 54 29 SW 1004,6 0
30.06.2020 20:00:00 15,9 12,2 43 23 - - SW 1004,6 0
30.06.2020 19:00:00 15,9 12,2 50 27 68 37 WSW 1004,8 0
30.06.2020 18:00:00 15,4 13,3 43 23 58 31 WSW 1005,2 0
30.06.2020 17:00:00 15,5 13,2 50 27 - - SW 1005,1 0
30.06.2020 16:00:00 15,2 13,1 58 31 65 35 WSW 1004,9 0
30.06.2020 15:00:00 15,4 12,4 50 27 68 37 SW 1004,7 0
30.06.2020 14:00:00 15,3 12,6 58 31 - - SW 1004,8 0
30.06.2020 13:00:00 15,2 12,6 54 29 65 35 SW 1004,5 12
30.06.2020 12:00:00 15,0 12,7 54 29 61 33 SW 1004,3 0
30.06.2020 11:00:00 14,3 12,8 58 31 - - SW 1004,3 0
30.06.2020 10:00:00 14,4 12,7 54 29 61 33 SW 1003,9 0
30.06.2020 09:00:00 14,3 12,7 50 27 65 35 SW 1003,8 12
30.06.2020 08:00:00 14,3 12,5 54 29 - - SW 1003,7 0
30.06.2020 07:00:00 13,7 12,7 47 25 61 33 SW 1003,7 0
30.06.2020 06:00:00 13,5 12,7 54 29 61 33 SW 1003,7 0
30.06.2020 05:00:00 13,7 12,3 50 27 - - SW 1003,6 0
30.06.2020 04:00:00 13,9 12,6 50 27 61 33 SW 1004,1 0
30.06.2020 03:00:00 13,9 12,4 47 25 68 37 SW 1004,5 0
30.06.2020 02:00:00 15,3 11,1 54 29 - - SW 1005,0 0
30.06.2020 01:00:00 15,5 10,8 47 25 72 39 SSW 1005,4 0
30.06.2020 00:00:00 16,4 10,3 58 31 72 39 SW 1005,8 0
29.06.2020 23:00:00 16,5 10,9 43 23 - - SW 1006,4 0
29.06.2020 22:00:00 16,1 11,2 36 19 58 31 SSW 1006,9 0
29.06.2020 21:00:00 16,0 10,8 47 25 65 35 SW 1007,0 0
29.06.2020 20:00:00 16,0 10,8 54 29 - - SW 1007,4 0
29.06.2020 19:00:00 16,5 10,8 43 23 65 35 SW 1007,8 0
29.06.2020 18:00:00 17,3 10,6 32 18 58 31 SW 1007,9 0
29.06.2020 17:00:00 18,0 9,3 43 23 - - SW 1007,6 0
29.06.2020 16:00:00 17,9 9,8 40 21 58 31 SW 1008,3 12
29.06.2020 15:00:00 17,8 10,2 32 18 58 31 SW 1008,6 18
29.06.2020 14:00:00 18,0 8,7 36 19 - - SW 1008,6 48
29.06.2020 13:00:00 16,8 11,0 32 18 47 25 SW 1008,9 24
29.06.2020 12:00:00 16,8 9,9 43 23 50 27 SW 1008,8 48
29.06.2020 11:00:00 16,4 10,1 47 25 - - SW 1008,6 54
29.06.2020 10:00:00 16,0 10,7 40 21 47 25 SSW 1008,5 60
29.06.2020 09:00:00 15,0 10,1 40 21 50 27 SW 1008,6 60
29.06.2020 08:00:00 14,6 10,5 36 19 - - SSW 1008,9 60
29.06.2020 07:00:00 14,6 10,7 32 18 - - SSW 1009,1 60
29.06.2020 06:00:00 15,9 10,9 29 16 - - SSW 1009,4 0
29.06.2020 05:00:00 15,9 11,4 25 14 - - SSW 1009,9 0
29.06.2020 04:00:00 16,8 12,0 25 14 - - S 1010,2 0
29.06.2020 03:00:00 17,2 10,7 22 12 - - S 1010,4 0
29.06.2020 02:00:00 17,1 10,4 18 10 - - SSW 1011,1 0
29.06.2020 01:00:00 17,2 10,9 22 12 - - SW 1011,2 0
29.06.2020 00:00:00 17,7 9,7 29 16 - - SW 1011,3 0
28.06.2020 23:00:00 18,3 9,8 25 14 - - SW 1011,6 0
28.06.2020 22:00:00 17,1 12,9 4 2 - - SW 1011,7 30
28.06.2020 21:00:00 17,3 12,5 7 4 - - W 1011,7 48
28.06.2020 20:00:00 17,5 11,8 4 2 - - ESE 1011,8 24
28.06.2020 19:00:00 16,8 13,0 4 2 - - WSW 1011,8 30
28.06.2020 18:00:00 16,8 12,8 7 4 - - N 1011,6 48
28.06.2020 17:00:00 16,5 12,8 22 12 - - WNW 1011,6 0
28.06.2020 16:00:00 16,7 12,7 22 12 54 29 WNW 1011,2 18
28.06.2020 15:00:00 17,7 12,7 32 18 54 29 SW 1010,8 6
28.06.2020 14:00:00 17,8 12,2 32 18 - - SW 1010,6 30
28.06.2020 13:00:00 18,1 11,8 40 21 47 25 SW 1010,2 12
28.06.2020 12:00:00 17,7 12,3 32 18 47 25 SW 1010,1 0
28.06.2020 11:00:00 17,7 13,5 40 21 - - SW 1009,7 0
28.06.2020 10:00:00 17,9 14,5 36 19 - - SW 1008,9 0
28.06.2020 09:00:00 17,7 15,0 36 19 - - SSW 1008,5 0
28.06.2020 08:00:00 17,8 15,1 29 16 - - S 1007,9 0
28.06.2020 07:00:00 18,2 15,1 36 19 - - S 1007,8 0
28.06.2020 06:00:00 18,4 15,9 29 16 - - S 1007,9 0
28.06.2020 05:00:00 17,7 16,1 25 14 - - S 1008,2 0
28.06.2020 04:00:00 17,6 16,3 18 10 - - SSW 1008,3 0
28.06.2020 03:00:00 17,4 16,9 29 16 50 27 WSW 1008,7 0
28.06.2020 02:00:00 19,7 18,5 22 12 - - S 1008,3 0
28.06.2020 01:00:00 19,2 18,2 18 10 - - SSW 1008,5 0
28.06.2020 00:00:00 19,8 18,6 11 6 - - S 1008,6 0
27.06.2020 23:00:00 20,1 17,3 11 6 - - S 1008,7 0
27.06.2020 22:00:00 19,6 16,5 11 6 - - SSE 1008,4 0
27.06.2020 21:00:00 18,9 16,3 7 4 - - S 1008,1 0
27.06.2020 20:00:00 18,2 17,7 7 4 - - NW 1008,5 0
27.06.2020 19:00:00 19,0 17,0 14 8 - - E 1007,2 18
27.06.2020 18:00:00 17,8 16,1 14 8 58 31 NNW 1008,5 12
27.06.2020 17:00:00 20,3 17,3 11 6 - - N 1008,1 0
27.06.2020 16:00:00 19,6 17,8 18 10 - - NNW 1007,7 6
27.06.2020 15:00:00 21,1 17,1 14 8 - - NW 1008,0 6
27.06.2020 14:00:00 22,5 17,1 7 4 - - WSW 1008,2 30
27.06.2020 13:00:00 22,5 17,3 18 10 - - SSW 1008,0 0
27.06.2020 12:00:00 22,2 17,3 29 16 - - S 1007,9 36
27.06.2020 11:00:00 22,7 17,7 14 8 - - SSE 1007,8 54
27.06.2020 10:00:00 21,2 18,2 18 10 - - S 1008,5 60
27.06.2020 09:00:00 22,2 16,5 22 12 - - SSE 1008,2 60
27.06.2020 08:00:00 21,4 16,9 18 10 - - SE 1008,2 60
27.06.2020 07:00:00 21,4 16,5 22 12 - - SE 1008,4 60
27.06.2020 06:00:00 21,6 16,5 22 12 - - SE 1008,8 0
27.06.2020 05:00:00 22,3 17,2 22 12 - - SSE 1008,9 0
27.06.2020 04:00:00 23,1 16,6 25 14 - - SE 1009,1 0
27.06.2020 03:00:00 22,0 18,3 25 14 - - ESE 1009,6 0
27.06.2020 02:00:00 22,6 18,7 25 14 - - ESE 1009,9 0
27.06.2020 01:00:00 22,6 18,7 25 14 - - ESE 1010,1 0
27.06.2020 00:00:00 23,1 18,9 29 16 - - ESE 1010,1 0
26.06.2020 23:00:00 23,9 18,5 36 19 - - E 1010,5 0
26.06.2020 22:00:00 25,3 18,6 36 19 - - E 1010,5 30
26.06.2020 21:00:00 27,8 14,1 14 8 - - E 1010,5 60
26.06.2020 20:00:00 28,0 12,8 14 8 - - ENE 1010,4 60
26.06.2020 19:00:00 25,2 14,7 22 12 - - NE 1010,7 60
26.06.2020 18:00:00 26,4 13,5 22 12 - - NE 1011,8 60
26.06.2020 17:00:00 25,7 13,4 18 10 - - NE 1012,5 60
26.06.2020 16:00:00 26,2 14,8 7 4 - - E 1013,0 60
26.06.2020 15:00:00 26,5 12,4 14 8 - - SE 1013,2 60
26.06.2020 14:00:00 25,5 13,2 14 8 - - SE 1014,0 60
26.06.2020 13:00:00 25,6 14,0 18 10 - - SE 1014,5 60
26.06.2020 12:00:00 24,4 14,1 22 12 - - SSE 1015,0 60
26.06.2020 11:00:00 23,4 14,9 18 10 - - SE 1015,4 60
26.06.2020 10:00:00 22,3 15,4 18 10 - - SE 1015,6 60

tt = Température de l'air
td = dewpoint
ff = Vitesse du vent
fx = gusts
dd = Direction du vent
ppp = reduced air pressure
sd = Ensoleillement

stations d'obs. à proximité